Hortensia, Argentina
Current Conditions -  °F | °C
As of 3:00 PM on Thursday 23 Oct 2014 (Local Time) from SAEZ Reporting Station
Clear Clear  
Wind Chill: 88°   Ceiling: Unl
Heat Index: 90°   Visibility: 6mi
Dew Point: 66°   Wind: 6mph
Humidity: 49%   Direction: 70°ENE
Pressure: 29.94"   Gusts: NA
Location:  35.93°S, 61.28°W
Report Text: SAEZ 231800Z 07005KT CAVOK 31/19 Q1014
Loading
Personal Weather Stations






























Interactive Weather Map
Tropical Storm Tracking
New forecast layout! Learn more

10-Day Weather Forecast

Advertisements
Track Severe Weather on mobile